sensor_id;sensor_type;location;lat;lon;timestamp;P1;durP1;ratioP1;P2;durP2;ratioP2
76123;SDS011;65173;48.066;20.976;2024-03-23T00:53:55;15.97;;;8.17;;
76123;SDS011;65173;48.066;20.976;2024-03-23T00:56:57;17.33;;;9.32;;
76123;SDS011;65173;48.066;20.976;2024-03-23T00:59:58;15.38;;;7.75;;
76123;SDS011;65173;48.066;20.976;2024-03-23T01:02:59;16.95;;;7.93;;
76123;SDS011;65173;48.066;20.976;2024-03-23T01:06:01;15.18;;;7.93;;
76123;SDS011;65173;48.066;20.976;2024-03-23T01:09:05;15.05;;;8.40;;
76123;SDS011;65173;48.066;20.976;2024-03-23T01:12:07;19.10;;;8.15;;
76123;SDS011;65173;48.066;20.976;2024-03-23T01:15:08;14.87;;;6.43;;
76123;SDS011;65173;48.066;20.976;2024-03-23T01:18:10;18.60;;;8.32;;
76123;SDS011;65173;48.066;20.976;2024-03-23T01:21:11;14.02;;;6.95;;
76123;SDS011;65173;48.066;20.976;2024-03-23T01:24:12;16.27;;;8.13;;
76123;SDS011;65173;48.066;20.976;2024-03-23T01:27:14;15.32;;;7.85;;
76123;SDS011;65173;48.066;20.976;2024-03-23T01:30:15;14.05;;;6.43;;
76123;SDS011;65173;48.066;20.976;2024-03-23T01:33:19;14.93;;;7.20;;
76123;SDS011;65173;48.066;20.976;2024-03-23T01:36:20;14.23;;;7.53;;
76123;SDS011;65173;48.066;20.976;2024-03-23T01:39:22;14.20;;;7.32;;
76123;SDS011;65173;48.066;20.976;2024-03-23T01:42:23;14.20;;;6.22;;
76123;SDS011;65173;48.066;20.976;2024-03-23T01:45:24;16.50;;;8.47;;
76123;SDS011;65173;48.066;20.976;2024-03-23T01:48:26;18.10;;;8.02;;
76123;SDS011;65173;48.066;20.976;2024-03-23T01:51:27;12.88;;;7.57;;
76123;SDS011;65173;48.066;20.976;2024-03-23T01:54:30;20.20;;;8.90;;
76123;SDS011;65173;48.066;20.976;2024-03-23T01:57:32;15.27;;;7.72;;
76123;SDS011;65173;48.066;20.976;2024-03-23T02:00:34;16.30;;;7.60;;
76123;SDS011;65173;48.066;20.976;2024-03-23T02:03:35;18.27;;;7.88;;
76123;SDS011;65173;48.066;20.976;2024-03-23T02:06:36;11.57;;;7.20;;
76123;SDS011;65173;48.066;20.976;2024-03-23T02:09:38;17.38;;;9.13;;
76123;SDS011;65173;48.066;20.976;2024-03-23T02:12:40;18.40;;;9.35;;
76123;SDS011;65173;48.066;20.976;2024-03-23T02:15:41;12.97;;;7.00;;
76123;SDS011;65173;48.066;20.976;2024-03-23T02:18:43;14.93;;;8.70;;
76123;SDS011;65173;48.066;20.976;2024-03-23T02:21:44;15.98;;;7.45;;
76123;SDS011;65173;48.066;20.976;2024-03-23T02:24:48;20.43;;;10.03;;
76123;SDS011;65173;48.066;20.976;2024-03-23T02:27:49;18.25;;;8.90;;
76123;SDS011;65173;48.066;20.976;2024-03-23T02:30:51;14.70;;;7.10;;
76123;SDS011;65173;48.066;20.976;2024-03-23T02:33:53;23.63;;;8.20;;
76123;SDS011;65173;48.066;20.976;2024-03-23T02:36:54;19.40;;;9.10;;
76123;SDS011;65173;48.066;20.976;2024-03-23T02:39:56;21.00;;;9.25;;
76123;SDS011;65173;48.066;20.976;2024-03-23T02:42:57;16.50;;;8.85;;
76123;SDS011;65173;48.066;20.976;2024-03-23T02:45:58;25.80;;;9.67;;
76123;SDS011;65173;48.066;20.976;2024-03-23T02:49:00;20.42;;;9.23;;
76123;SDS011;65173;48.066;20.976;2024-03-23T02:52:01;22.95;;;10.40;;
76123;SDS011;65173;48.066;20.976;2024-03-23T02:55:03;20.07;;;11.23;;
76123;SDS011;65173;48.066;20.976;2024-03-23T02:58:06;22.50;;;11.00;;
76123;SDS011;65173;48.066;20.976;2024-03-23T03:01:07;21.02;;;10.40;;
76123;SDS011;65173;48.066;20.976;2024-03-23T03:04:08;18.15;;;9.18;;
76123;SDS011;65173;48.066;20.976;2024-03-23T03:07:10;18.20;;;9.20;;
76123;SDS011;65173;48.066;20.976;2024-03-23T03:10:11;16.83;;;9.63;;
76123;SDS011;65173;48.066;20.976;2024-03-23T03:13:13;16.40;;;9.15;;
76123;SDS011;65173;48.066;20.976;2024-03-23T03:16:14;16.70;;;8.13;;
76123;SDS011;65173;48.066;20.976;2024-03-23T03:19:16;15.65;;;7.72;;
76123;SDS011;65173;48.066;20.976;2024-03-23T03:22:17;14.15;;;8.07;;
76123;SDS011;65173;48.066;20.976;2024-03-23T03:25:19;14.43;;;8.80;;
76123;SDS011;65173;48.066;20.976;2024-03-23T03:28:20;17.00;;;7.57;;
76123;SDS011;65173;48.066;20.976;2024-03-23T03:31:22;19.17;;;9.50;;
76123;SDS011;65173;48.066;20.976;2024-03-23T03:34:23;17.15;;;8.57;;
76123;SDS011;65173;48.066;20.976;2024-03-23T03:37:25;16.85;;;8.77;;
76123;SDS011;65173;48.066;20.976;2024-03-23T03:40:26;18.30;;;8.32;;
76123;SDS011;65173;48.066;20.976;2024-03-23T03:43:28;14.43;;;8.52;;
76123;SDS011;65173;48.066;20.976;2024-03-23T03:46:29;21.90;;;8.97;;
76123;SDS011;65173;48.066;20.976;2024-03-23T03:49:31;15.50;;;7.75;;
76123;SDS011;65173;48.066;20.976;2024-03-23T03:52:32;11.98;;;6.32;;
76123;SDS011;65173;48.066;20.976;2024-03-23T03:55:34;15.73;;;7.60;;
76123;SDS011;65173;48.066;20.976;2024-03-23T03:58:35;14.82;;;8.18;;
76123;SDS011;65173;48.066;20.976;2024-03-23T04:01:37;15.48;;;8.57;;
76123;SDS011;65173;48.066;20.976;2024-03-23T04:04:38;18.35;;;9.45;;
76123;SDS011;65173;48.066;20.976;2024-03-23T04:07:39;16.65;;;7.70;;
76123;SDS011;65173;48.066;20.976;2024-03-23T04:10:41;14.93;;;7.28;;
76123;SDS011;65173;48.066;20.976;2024-03-23T04:13:42;15.07;;;6.80;;
76123;SDS011;65173;48.066;20.976;2024-03-23T04:16:44;15.80;;;9.17;;
76123;SDS011;65173;48.066;20.976;2024-03-23T04:19:46;17.52;;;7.70;;
76123;SDS011;65173;48.066;20.976;2024-03-23T04:22:48;15.43;;;7.90;;
76123;SDS011;65173;48.066;20.976;2024-03-23T04:25:49;12.63;;;6.63;;
76123;SDS011;65173;48.066;20.976;2024-03-23T04:28:51;16.55;;;8.85;;
76123;SDS011;65173;48.066;20.976;2024-03-23T04:31:53;13.57;;;7.15;;
76123;SDS011;65173;48.066;20.976;2024-03-23T04:34:54;8.75;;;5.80;;
76123;SDS011;65173;48.066;20.976;2024-03-23T04:37:56;18.33;;;8.23;;
76123;SDS011;65173;48.066;20.976;2024-03-23T04:40:59;15.30;;;8.60;;
76123;SDS011;65173;48.066;20.976;2024-03-23T04:44:01;15.75;;;8.48;;
76123;SDS011;65173;48.066;20.976;2024-03-23T04:47:03;17.07;;;7.67;;
76123;SDS011;65173;48.066;20.976;2024-03-23T04:50:04;17.77;;;7.75;;
76123;SDS011;65173;48.066;20.976;2024-03-23T04:53:07;14.27;;;6.10;;
76123;SDS011;65173;48.066;20.976;2024-03-23T04:56:08;18.03;;;8.70;;
76123;SDS011;65173;48.066;20.976;2024-03-23T04:59:11;16.30;;;7.90;;
76123;SDS011;65173;48.066;20.976;2024-03-23T05:02:12;16.58;;;7.18;;
76123;SDS011;65173;48.066;20.976;2024-03-23T05:05:16;17.55;;;8.52;;
76123;SDS011;65173;48.066;20.976;2024-03-23T05:08:17;17.73;;;8.50;;
76123;SDS011;65173;48.066;20.976;2024-03-23T05:11:19;18.33;;;8.35;;
76123;SDS011;65173;48.066;20.976;2024-03-23T05:14:21;18.00;;;7.93;;
76123;SDS011;65173;48.066;20.976;2024-03-23T05:17:23;14.53;;;8.63;;
76123;SDS011;65173;48.066;20.976;2024-03-23T05:20:24;17.92;;;9.10;;
76123;SDS011;65173;48.066;20.976;2024-03-23T05:23:26;19.88;;;8.70;;
76123;SDS011;65173;48.066;20.976;2024-03-23T05:26:29;14.77;;;7.97;;
76123;SDS011;65173;48.066;20.976;2024-03-23T05:29:30;21.38;;;8.55;;
76123;SDS011;65173;48.066;20.976;2024-03-23T05:32:31;17.52;;;8.68;;
76123;SDS011;65173;48.066;20.976;2024-03-23T05:35:33;17.85;;;8.98;;
76123;SDS011;65173;48.066;20.976;2024-03-23T05:38:34;13.10;;;6.70;;
76123;SDS011;65173;48.066;20.976;2024-03-23T05:41:36;17.70;;;8.45;;
76123;SDS011;65173;48.066;20.976;2024-03-23T05:44:37;10.48;;;5.68;;
76123;SDS011;65173;48.066;20.976;2024-03-23T05:47:39;17.73;;;7.57;;
76123;SDS011;65173;48.066;20.976;2024-03-23T05:50:41;12.73;;;7.65;;
76123;SDS011;65173;48.066;20.976;2024-03-23T05:53:42;15.70;;;8.25;;
76123;SDS011;65173;48.066;20.976;2024-03-23T05:56:43;18.43;;;8.10;;
76123;SDS011;65173;48.066;20.976;2024-03-23T05:59:45;17.90;;;8.98;;
76123;SDS011;65173;48.066;20.976;2024-03-23T06:02:46;16.88;;;7.90;;
76123;SDS011;65173;48.066;20.976;2024-03-23T06:05:48;9.27;;;5.18;;
76123;SDS011;65173;48.066;20.976;2024-03-23T06:08:49;16.52;;;8.48;;
76123;SDS011;65173;48.066;20.976;2024-03-23T06:11:50;15.65;;;7.50;;
76123;SDS011;65173;48.066;20.976;2024-03-23T06:14:52;9.40;;;5.45;;
76123;SDS011;65173;48.066;20.976;2024-03-23T06:17:54;15.13;;;7.87;;
76123;SDS011;65173;48.066;20.976;2024-03-23T06:20:56;12.75;;;5.35;;
76123;SDS011;65173;48.066;20.976;2024-03-23T06:23:57;14.52;;;5.90;;
76123;SDS011;65173;48.066;20.976;2024-03-23T06:26:58;15.03;;;7.80;;
76123;SDS011;65173;48.066;20.976;2024-03-23T06:30:00;17.13;;;8.73;;
76123;SDS011;65173;48.066;20.976;2024-03-23T06:33:02;22.48;;;8.88;;
76123;SDS011;65173;48.066;20.976;2024-03-23T06:36:04;17.02;;;8.65;;
76123;SDS011;65173;48.066;20.976;2024-03-23T06:39:06;12.32;;;6.38;;
76123;SDS011;65173;48.066;20.976;2024-03-23T06:42:10;18.00;;;8.20;;
76123;SDS011;65173;48.066;20.976;2024-03-23T06:45:11;18.23;;;6.00;;
76123;SDS011;65173;48.066;20.976;2024-03-23T06:48:13;17.63;;;8.20;;
76123;SDS011;65173;48.066;20.976;2024-03-23T06:51:14;14.68;;;7.85;;
76123;SDS011;65173;48.066;20.976;2024-03-23T06:54:16;6.68;;;4.72;;
76123;SDS011;65173;48.066;20.976;2024-03-23T06:57:18;15.60;;;8.33;;
76123;SDS011;65173;48.066;20.976;2024-03-23T07:00:20;17.45;;;7.75;;
76123;SDS011;65173;48.066;20.976;2024-03-23T07:03:21;17.98;;;8.60;;
76123;SDS011;65173;48.066;20.976;2024-03-23T07:06:23;15.90;;;7.70;;
76123;SDS011;65173;48.066;20.976;2024-03-23T07:09:24;15.60;;;8.02;;
76123;SDS011;65173;48.066;20.976;2024-03-23T07:12:27;10.90;;;6.20;;
76123;SDS011;65173;48.066;20.976;2024-03-23T07:15:29;7.25;;;4.90;;
76123;SDS011;65173;48.066;20.976;2024-03-23T07:18:31;19.60;;;8.43;;
76123;SDS011;65173;48.066;20.976;2024-03-23T07:21:32;10.45;;;5.90;;
76123;SDS011;65173;48.066;20.976;2024-03-23T07:24:33;16.02;;;7.53;;
76123;SDS011;65173;48.066;20.976;2024-03-23T07:27:35;17.97;;;9.00;;
76123;SDS011;65173;48.066;20.976;2024-03-23T07:30:36;17.55;;;7.32;;
76123;SDS011;65173;48.066;20.976;2024-03-23T07:33:45;20.80;;;10.07;;
76123;SDS011;65173;48.066;20.976;2024-03-23T07:36:48;16.90;;;8.82;;
76123;SDS011;65173;48.066;20.976;2024-03-23T07:39:50;17.15;;;8.77;;
76123;SDS011;65173;48.066;20.976;2024-03-23T07:42:52;17.50;;;9.48;;
76123;SDS011;65173;48.066;20.976;2024-03-23T07:45:54;17.10;;;9.00;;
76123;SDS011;65173;48.066;20.976;2024-03-23T07:48:55;16.93;;;8.73;;
76123;SDS011;65173;48.066;20.976;2024-03-23T07:51:57;16.67;;;8.93;;
76123;SDS011;65173;48.066;20.976;2024-03-23T07:54:58;17.75;;;8.70;;
76123;SDS011;65173;48.066;20.976;2024-03-23T07:57:59;23.77;;;8.93;;
76123;SDS011;65173;48.066;20.976;2024-03-23T08:01:08;11.43;;;6.18;;
76123;SDS011;65173;48.066;20.976;2024-03-23T08:04:12;15.25;;;8.50;;
76123;SDS011;65173;48.066;20.976;2024-03-23T08:07:13;17.20;;;7.10;;
76123;SDS011;65173;48.066;20.976;2024-03-23T08:10:15;13.55;;;7.43;;
76123;SDS011;65173;48.066;20.976;2024-03-23T08:13:19;7.28;;;4.25;;
76123;SDS011;65173;48.066;20.976;2024-03-23T08:16:20;16.60;;;8.57;;
76123;SDS011;65173;48.066;20.976;2024-03-23T08:19:22;17.00;;;7.50;;
76123;SDS011;65173;48.066;20.976;2024-03-23T08:22:24;12.38;;;6.28;;
76123;SDS011;65173;48.066;20.976;2024-03-23T08:25:25;16.25;;;7.60;;
76123;SDS011;65173;48.066;20.976;2024-03-23T08:28:27;19.37;;;9.83;;
76123;SDS011;65173;48.066;20.976;2024-03-23T08:31:28;18.40;;;7.60;;
76123;SDS011;65173;48.066;20.976;2024-03-23T08:34:30;8.48;;;6.07;;
76123;SDS011;65173;48.066;20.976;2024-03-23T08:37:31;16.20;;;7.13;;
76123;SDS011;65173;48.066;20.976;2024-03-23T08:40:33;22.63;;;9.60;;
76123;SDS011;65173;48.066;20.976;2024-03-23T08:43:38;12.68;;;9.00;;
76123;SDS011;65173;48.066;20.976;2024-03-23T08:46:40;13.70;;;7.75;;
76123;SDS011;65173;48.066;20.976;2024-03-23T08:49:42;14.07;;;8.47;;
76123;SDS011;65173;48.066;20.976;2024-03-23T08:52:44;13.05;;;7.78;;
76123;SDS011;65173;48.066;20.976;2024-03-23T08:55:52;17.75;;;8.50;;
76123;SDS011;65173;48.066;20.976;2024-03-23T08:58:54;17.80;;;7.13;;
76123;SDS011;65173;48.066;20.976;2024-03-23T09:01:56;15.75;;;7.35;;
76123;SDS011;65173;48.066;20.976;2024-03-23T09:04:57;14.88;;;8.65;;
76123;SDS011;65173;48.066;20.976;2024-03-23T09:08:05;17.20;;;7.88;;
76123;SDS011;65173;48.066;20.976;2024-03-23T09:11:08;17.15;;;8.55;;
76123;SDS011;65173;48.066;20.976;2024-03-23T09:14:11;15.18;;;8.18;;
76123;SDS011;65173;48.066;20.976;2024-03-23T09:17:12;16.10;;;7.75;;
76123;SDS011;65173;48.066;20.976;2024-03-23T09:20:14;11.13;;;6.33;;
76123;SDS011;65173;48.066;20.976;2024-03-23T09:23:15;11.15;;;6.22;;
76123;SDS011;65173;48.066;20.976;2024-03-23T09:26:17;19.80;;;9.02;;
76123;SDS011;65173;48.066;20.976;2024-03-23T09:29:18;12.90;;;7.53;;
76123;SDS011;65173;48.066;20.976;2024-03-23T09:32:20;13.20;;;8.15;;
76123;SDS011;65173;48.066;20.976;2024-03-23T09:35:21;17.70;;;8.13;;
76123;SDS011;65173;48.066;20.976;2024-03-23T09:38:23;12.57;;;7.57;;
76123;SDS011;65173;48.066;20.976;2024-03-23T09:41:24;16.83;;;8.23;;
76123;SDS011;65173;48.066;20.976;2024-03-23T09:44:26;11.90;;;7.45;;
76123;SDS011;65173;48.066;20.976;2024-03-23T09:47:30;14.60;;;7.40;;
76123;SDS011;65173;48.066;20.976;2024-03-23T09:50:31;8.07;;;5.97;;
76123;SDS011;65173;48.066;20.976;2024-03-23T09:53:33;9.00;;;6.13;;
76123;SDS011;65173;48.066;20.976;2024-03-23T09:56:35;18.23;;;7.47;;
76123;SDS011;65173;48.066;20.976;2024-03-23T09:59:36;12.77;;;5.20;;
76123;SDS011;65173;48.066;20.976;2024-03-23T10:02:38;8.52;;;5.43;;
76123;SDS011;65173;48.066;20.976;2024-03-23T10:05:39;8.13;;;5.20;;
76123;SDS011;65173;48.066;20.976;2024-03-23T10:08:41;15.82;;;4.95;;
76123;SDS011;65173;48.066;20.976;2024-03-23T10:11:42;8.55;;;6.68;;
76123;SDS011;65173;48.066;20.976;2024-03-23T10:14:45;7.43;;;5.65;;
76123;SDS011;65173;48.066;20.976;2024-03-23T10:17:47;10.13;;;6.25;;
76123;SDS011;65173;48.066;20.976;2024-03-23T10:24:09;15.52;;;7.75;;
76123;SDS011;65173;48.066;20.976;2024-03-23T10:27:15;9.38;;;4.85;;
76123;SDS011;65173;48.066;20.976;2024-03-23T10:30:21;9.97;;;4.93;;
76123;SDS011;65173;48.066;20.976;2024-03-23T10:33:28;9.50;;;5.40;;
76123;SDS011;65173;48.066;20.976;2024-03-23T10:36:31;7.97;;;5.28;;
76123;SDS011;65173;48.066;20.976;2024-03-23T10:39:34;6.32;;;4.10;;
76123;SDS011;65173;48.066;20.976;2024-03-23T10:42:40;7.20;;;4.25;;
76123;SDS011;65173;48.066;20.976;2024-03-23T10:45:41;6.78;;;4.60;;
76123;SDS011;65173;48.066;20.976;2024-03-23T10:48:43;11.25;;;6.88;;
76123;SDS011;65173;48.066;20.976;2024-03-23T10:51:45;6.93;;;4.70;;
76123;SDS011;65173;48.066;20.976;2024-03-23T10:54:47;4.75;;;3.70;;
76123;SDS011;65173;48.066;20.976;2024-03-23T10:57:56;8.55;;;4.05;;
76123;SDS011;65173;48.066;20.976;2024-03-23T11:01:00;15.07;;;7.20;;
76123;SDS011;65173;48.066;20.976;2024-03-23T11:04:03;4.93;;;3.60;;
76123;SDS011;65173;48.066;20.976;2024-03-23T11:10:26;5.13;;;3.60;;
76123;SDS011;65173;48.066;20.976;2024-03-23T11:13:30;6.53;;;4.72;;
76123;SDS011;65173;48.066;20.976;2024-03-23T11:16:31;8.68;;;5.03;;
76123;SDS011;65173;48.066;20.976;2024-03-23T11:19:36;10.00;;;6.30;;
76123;SDS011;65173;48.066;20.976;2024-03-23T11:25:40;9.35;;;6.38;;
76123;SDS011;65173;48.066;20.976;2024-03-23T11:28:41;8.18;;;4.03;;
76123;SDS011;65173;48.066;20.976;2024-03-23T11:31:47;3.87;;;3.23;;
76123;SDS011;65173;48.066;20.976;2024-03-23T11:34:50;5.88;;;4.10;;
76123;SDS011;65173;48.066;20.976;2024-03-23T11:38:02;5.10;;;3.72;;
76123;SDS011;65173;48.066;20.976;2024-03-23T11:41:19;4.10;;;3.63;;
76123;SDS011;65173;48.066;20.976;2024-03-23T11:44:21;5.20;;;3.50;;
76123;SDS011;65173;48.066;20.976;2024-03-23T11:47:24;4.60;;;4.05;;
76123;SDS011;65173;48.066;20.976;2024-03-23T11:50:25;5.22;;;3.58;;
76123;SDS011;65173;48.066;20.976;2024-03-23T11:53:27;4.50;;;2.73;;
76123;SDS011;65173;48.066;20.976;2024-03-23T11:56:28;6.50;;;3.92;;
76123;SDS011;65173;48.066;20.976;2024-03-23T11:59:33;5.07;;;4.00;;
76123;SDS011;65173;48.066;20.976;2024-03-23T12:02:36;5.87;;;3.37;;
76123;SDS011;65173;48.066;20.976;2024-03-23T12:05:38;6.13;;;3.80;;
76123;SDS011;65173;48.066;20.976;2024-03-23T12:08:39;4.18;;;2.88;;
76123;SDS011;65173;48.066;20.976;2024-03-23T12:11:41;4.28;;;3.05;;
76123;SDS011;65173;48.066;20.976;2024-03-23T12:14:43;9.85;;;3.10;;
76123;SDS011;65173;48.066;20.976;2024-03-23T12:17:45;5.78;;;3.85;;
76123;SDS011;65173;48.066;20.976;2024-03-23T12:20:46;2.83;;;2.30;;
76123;SDS011;65173;48.066;20.976;2024-03-23T12:23:48;3.10;;;2.57;;
76123;SDS011;65173;48.066;20.976;2024-03-23T12:26:51;5.38;;;3.33;;
76123;SDS011;65173;48.066;20.976;2024-03-23T12:29:52;4.63;;;2.67;;
76123;SDS011;65173;48.066;20.976;2024-03-23T12:32:54;3.43;;;2.47;;
76123;SDS011;65173;48.066;20.976;2024-03-23T12:35:55;5.10;;;3.78;;
76123;SDS011;65173;48.066;20.976;2024-03-23T12:38:57;4.25;;;2.97;;
76123;SDS011;65173;48.066;20.976;2024-03-23T12:41:58;3.95;;;2.40;;
76123;SDS011;65173;48.066;20.976;2024-03-23T12:45:00;2.75;;;1.80;;
76123;SDS011;65173;48.066;20.976;2024-03-23T12:48:01;6.10;;;2.88;;
76123;SDS011;65173;48.066;20.976;2024-03-23T12:51:03;3.35;;;2.42;;
76123;SDS011;65173;48.066;20.976;2024-03-23T12:54:04;2.03;;;1.53;;
76123;SDS011;65173;48.066;20.976;2024-03-23T12:57:06;4.47;;;2.17;;
76123;SDS011;65173;48.066;20.976;2024-03-23T13:00:08;3.78;;;2.47;;
76123;SDS011;65173;48.066;20.976;2024-03-23T13:03:13;5.13;;;2.93;;
76123;SDS011;65173;48.066;20.976;2024-03-23T13:06:15;2.03;;;1.77;;
76123;SDS011;65173;48.066;20.976;2024-03-23T13:09:17;3.42;;;2.15;;
76123;SDS011;65173;48.066;20.976;2024-03-23T13:12:19;2.25;;;2.05;;
76123;SDS011;65173;48.066;20.976;2024-03-23T13:15:21;2.92;;;2.63;;
76123;SDS011;65173;48.066;20.976;2024-03-23T13:18:23;4.15;;;2.53;;
76123;SDS011;65173;48.066;20.976;2024-03-23T13:21:24;2.53;;;1.58;;
76123;SDS011;65173;48.066;20.976;2024-03-23T13:24:26;4.13;;;2.73;;
76123;SDS011;65173;48.066;20.976;2024-03-23T13:27:28;5.00;;;3.20;;
76123;SDS011;65173;48.066;20.976;2024-03-23T13:30:30;2.05;;;1.63;;
76123;SDS011;65173;48.066;20.976;2024-03-23T13:33:31;5.17;;;2.40;;
76123;SDS011;65173;48.066;20.976;2024-03-23T13:36:33;1.50;;;1.20;;
76123;SDS011;65173;48.066;20.976;2024-03-23T13:39:35;3.88;;;2.90;;
76123;SDS011;65173;48.066;20.976;2024-03-23T13:42:36;3.25;;;2.53;;
76123;SDS011;65173;48.066;20.976;2024-03-23T13:45:41;2.88;;;1.92;;
76123;SDS011;65173;48.066;20.976;2024-03-23T13:48:42;4.07;;;2.92;;
76123;SDS011;65173;48.066;20.976;2024-03-23T13:51:46;2.42;;;1.95;;
76123;SDS011;65173;48.066;20.976;2024-03-23T13:54:48;4.70;;;2.93;;
76123;SDS011;65173;48.066;20.976;2024-03-23T13:57:50;3.67;;;3.03;;
76123;SDS011;65173;48.066;20.976;2024-03-23T14:00:52;4.78;;;2.83;;
76123;SDS011;65173;48.066;20.976;2024-03-23T14:03:54;2.77;;;1.80;;
76123;SDS011;65173;48.066;20.976;2024-03-23T14:06:57;3.30;;;3.00;;
76123;SDS011;65173;48.066;20.976;2024-03-23T14:10:02;3.72;;;2.58;;
76123;SDS011;65173;48.066;20.976;2024-03-23T14:13:11;3.00;;;2.67;;
76123;SDS011;65173;48.066;20.976;2024-03-23T14:16:13;2.92;;;2.72;;
76123;SDS011;65173;48.066;20.976;2024-03-23T14:19:15;4.97;;;2.80;;
76123;SDS011;65173;48.066;20.976;2024-03-23T14:22:16;5.45;;;3.45;;
76123;SDS011;65173;48.066;20.976;2024-03-23T14:25:20;5.10;;;3.63;;
76123;SDS011;65173;48.066;20.976;2024-03-23T14:28:25;4.05;;;3.45;;
76123;SDS011;65173;48.066;20.976;2024-03-23T14:31:26;4.60;;;3.30;;
76123;SDS011;65173;48.066;20.976;2024-03-23T14:34:28;4.27;;;2.90;;
76123;SDS011;65173;48.066;20.976;2024-03-23T14:37:29;7.28;;;3.70;;
76123;SDS011;65173;48.066;20.976;2024-03-23T14:40:31;5.03;;;2.97;;
76123;SDS011;65173;48.066;20.976;2024-03-23T14:43:33;2.88;;;2.38;;
76123;SDS011;65173;48.066;20.976;2024-03-23T14:46:34;4.70;;;3.78;;
76123;SDS011;65173;48.066;20.976;2024-03-23T14:49:36;6.22;;;3.58;;
76123;SDS011;65173;48.066;20.976;2024-03-23T14:52:37;5.55;;;4.00;;
76123;SDS011;65173;48.066;20.976;2024-03-23T14:55:39;9.43;;;3.40;;
76123;SDS011;65173;48.066;20.976;2024-03-23T14:58:42;7.90;;;4.13;;
76123;SDS011;65173;48.066;20.976;2024-03-23T15:01:44;6.65;;;4.63;;
76123;SDS011;65173;48.066;20.976;2024-03-23T15:04:45;10.63;;;4.33;;
76123;SDS011;65173;48.066;20.976;2024-03-23T15:07:47;6.93;;;4.05;;
76123;SDS011;65173;48.066;20.976;2024-03-23T15:10:48;7.72;;;4.07;;
76123;SDS011;65173;48.066;20.976;2024-03-23T15:13:50;6.47;;;3.78;;
76123;SDS011;65173;48.066;20.976;2024-03-23T15:16:52;6.13;;;3.90;;
76123;SDS011;65173;48.066;20.976;2024-03-23T15:19:53;6.53;;;4.07;;
76123;SDS011;65173;48.066;20.976;2024-03-23T15:22:55;8.20;;;4.25;;
76123;SDS011;65173;48.066;20.976;2024-03-23T15:26:00;5.30;;;4.03;;
76123;SDS011;65173;48.066;20.976;2024-03-23T15:29:03;8.85;;;4.22;;
76123;SDS011;65173;48.066;20.976;2024-03-23T15:32:09;6.18;;;4.03;;
76123;SDS011;65173;48.066;20.976;2024-03-23T15:35:11;6.10;;;4.33;;
76123;SDS011;65173;48.066;20.976;2024-03-23T15:38:13;7.50;;;4.38;;
76123;SDS011;65173;48.066;20.976;2024-03-23T15:41:14;8.07;;;3.78;;
76123;SDS011;65173;48.066;20.976;2024-03-23T15:44:16;7.95;;;4.85;;
76123;SDS011;65173;48.066;20.976;2024-03-23T15:47:17;9.50;;;5.00;;
76123;SDS011;65173;48.066;20.976;2024-03-23T15:50:19;7.07;;;4.45;;
76123;SDS011;65173;48.066;20.976;2024-03-23T15:53:21;6.68;;;3.83;;
76123;SDS011;65173;48.066;20.976;2024-03-23T15:56:23;7.30;;;4.23;;
76123;SDS011;65173;48.066;20.976;2024-03-23T15:59:25;8.07;;;4.25;;
76123;SDS011;65173;48.066;20.976;2024-03-23T16:02:27;6.68;;;3.95;;
76123;SDS011;65173;48.066;20.976;2024-03-23T16:05:31;6.47;;;3.50;;
76123;SDS011;65173;48.066;20.976;2024-03-23T16:08:33;6.85;;;4.65;;
76123;SDS011;65173;48.066;20.976;2024-03-23T16:11:35;5.28;;;4.03;;
76123;SDS011;65173;48.066;20.976;2024-03-23T16:14:36;7.10;;;4.45;;
76123;SDS011;65173;48.066;20.976;2024-03-23T16:17:39;6.88;;;4.40;;
76123;SDS011;65173;48.066;20.976;2024-03-23T16:20:41;6.55;;;4.90;;
76123;SDS011;65173;48.066;20.976;2024-03-23T16:23:42;8.93;;;5.13;;
76123;SDS011;65173;48.066;20.976;2024-03-23T16:26:46;9.63;;;3.73;;
76123;SDS011;65173;48.066;20.976;2024-03-23T16:29:47;8.52;;;4.65;;
76123;SDS011;65173;48.066;20.976;2024-03-23T16:32:48;9.63;;;4.97;;
76123;SDS011;65173;48.066;20.976;2024-03-23T16:38:58;6.53;;;4.45;;
76123;SDS011;65173;48.066;20.976;2024-03-23T16:41:59;6.38;;;4.07;;
76123;SDS011;65173;48.066;20.976;2024-03-23T16:45:01;6.55;;;4.47;;
76123;SDS011;65173;48.066;20.976;2024-03-23T16:48:04;11.27;;;6.35;;
76123;SDS011;65173;48.066;20.976;2024-03-23T16:51:06;17.65;;;9.68;;
76123;SDS011;65173;48.066;20.976;2024-03-23T16:54:08;18.83;;;9.15;;
76123;SDS011;65173;48.066;20.976;2024-03-23T16:57:10;17.10;;;9.07;;
76123;SDS011;65173;48.066;20.976;2024-03-23T17:00:12;13.80;;;7.43;;
76123;SDS011;65173;48.066;20.976;2024-03-23T17:03:14;5.82;;;4.43;;
76123;SDS011;65173;48.066;20.976;2024-03-23T17:06:15;9.10;;;4.10;;
76123;SDS011;65173;48.066;20.976;2024-03-23T17:09:19;8.80;;;4.95;;
76123;SDS011;65173;48.066;20.976;2024-03-23T17:12:20;21.95;;;8.75;;
76123;SDS011;65173;48.066;20.976;2024-03-23T17:15:22;7.25;;;4.28;;
76123;SDS011;65173;48.066;20.976;2024-03-23T17:18:23;9.43;;;4.60;;
76123;SDS011;65173;48.066;20.976;2024-03-23T17:21:25;5.80;;;4.00;;
76123;SDS011;65173;48.066;20.976;2024-03-23T17:24:27;8.00;;;4.68;;
76123;SDS011;65173;48.066;20.976;2024-03-23T17:27:29;7.23;;;4.47;;
76123;SDS011;65173;48.066;20.976;2024-03-23T17:30:30;6.53;;;3.28;;
76123;SDS011;65173;48.066;20.976;2024-03-23T17:33:32;4.93;;;3.50;;
76123;SDS011;65173;48.066;20.976;2024-03-23T17:36:33;7.47;;;3.37;;
76123;SDS011;65173;48.066;20.976;2024-03-23T17:39:36;6.72;;;3.90;;
76123;SDS011;65173;48.066;20.976;2024-03-23T17:42:38;9.88;;;4.20;;
76123;SDS011;65173;48.066;20.976;2024-03-23T17:45:41;4.28;;;2.60;;
76123;SDS011;65173;48.066;20.976;2024-03-23T17:48:42;5.88;;;3.25;;
76123;SDS011;65173;48.066;20.976;2024-03-23T17:51:44;6.45;;;3.40;;
76123;SDS011;65173;48.066;20.976;2024-03-23T17:54:46;5.63;;;3.00;;
76123;SDS011;65173;48.066;20.976;2024-03-23T17:57:50;5.90;;;3.30;;
76123;SDS011;65173;48.066;20.976;2024-03-23T18:00:51;5.55;;;2.83;;
76123;SDS011;65173;48.066;20.976;2024-03-23T18:03:53;4.68;;;2.38;;
76123;SDS011;65173;48.066;20.976;2024-03-23T18:06:54;4.20;;;2.10;;
76123;SDS011;65173;48.066;20.976;2024-03-23T18:09:56;4.75;;;3.17;;
76123;SDS011;65173;48.066;20.976;2024-03-23T18:12:57;3.17;;;1.90;;
76123;SDS011;65173;48.066;20.976;2024-03-23T18:15:59;5.20;;;2.15;;
76123;SDS011;65173;48.066;20.976;2024-03-23T18:19:00;8.35;;;2.50;;
76123;SDS011;65173;48.066;20.976;2024-03-23T18:22:02;5.25;;;3.28;;
76123;SDS011;65173;48.066;20.976;2024-03-23T18:25:03;8.65;;;3.03;;
76123;SDS011;65173;48.066;20.976;2024-03-23T18:28:06;6.13;;;2.93;;
76123;SDS011;65173;48.066;20.976;2024-03-23T18:31:08;5.32;;;2.88;;
76123;SDS011;65173;48.066;20.976;2024-03-23T18:34:09;5.55;;;3.45;;
76123;SDS011;65173;48.066;20.976;2024-03-23T18:37:11;8.70;;;3.93;;
76123;SDS011;65173;48.066;20.976;2024-03-23T18:40:12;4.70;;;3.03;;
76123;SDS011;65173;48.066;20.976;2024-03-23T18:43:14;6.65;;;3.33;;
76123;SDS011;65173;48.066;20.976;2024-03-23T18:46:17;5.32;;;3.00;;
76123;SDS011;65173;48.066;20.976;2024-03-23T18:49:18;7.13;;;2.88;;
76123;SDS011;65173;48.066;20.976;2024-03-23T18:52:20;5.88;;;2.78;;
76123;SDS011;65173;48.066;20.976;2024-03-23T18:55:22;4.40;;;3.00;;
76123;SDS011;65173;48.066;20.976;2024-03-23T18:58:24;5.73;;;3.27;;